createdAt,value
2022-12-19T00:02:44.547Z,102513.81
2022-12-19T00:10:21.621Z,102503.84
2022-12-19T00:17:55.425Z,102505.88
2022-12-19T00:25:30.817Z,102486.44
2022-12-19T00:33:05.792Z,102487.78
2022-12-19T00:40:40.904Z,102466.69
2022-12-19T00:48:14.807Z,102459.19
2022-12-19T00:55:52.707Z,102455.94
2022-12-19T01:03:27.164Z,102440.63
2022-12-19T01:11:02.613Z,102414.88
2022-12-19T01:18:37.317Z,102413.97
2022-12-19T01:26:12.550Z,102393.88
2022-12-19T01:33:46.490Z,102385.72
2022-12-19T01:41:21.841Z,102364.41
2022-12-19T01:48:56.368Z,102364.38
2022-12-19T01:56:36.125Z,102341.84
2022-12-19T02:04:12.011Z,102327.13
2022-12-19T02:11:47.312Z,102326.94
2022-12-19T02:19:49.796Z,102321.88
2022-12-19T02:27:41.523Z,102314.81
2022-12-19T02:35:26.005Z,102299.47
2022-12-19T02:43:02.233Z,102297.94
2022-12-19T02:50:43.923Z,102292.09
2022-12-19T02:58:51.306Z,102293.03
2022-12-19T03:06:35.669Z,102286.59
2022-12-19T03:14:13.567Z,102280.09
2022-12-19T03:21:50.365Z,102279.00
2022-12-19T03:29:32.318Z,102266.41
2022-12-19T03:37:14.406Z,102255.19
2022-12-19T03:44:51.113Z,102261.63
2022-12-19T03:52:35.427Z,102253.66
2022-12-19T04:00:14.425Z,102238.00
2022-12-19T04:07:51.221Z,102239.53
2022-12-19T04:15:35.017Z,102245.69
2022-12-19T04:23:17.624Z,102242.28
2022-12-19T04:30:51.990Z,102252.44
2022-12-19T04:38:28.073Z,102240.75
2022-12-19T04:46:01.912Z,102236.88
2022-12-19T04:53:37.291Z,102229.75
2022-12-19T05:01:11.217Z,102216.88
2022-12-19T05:08:46.934Z,102223.44
2022-12-19T05:16:21.112Z,102215.91
2022-12-19T05:23:56.271Z,102219.38
2022-12-19T05:31:30.098Z,102201.69
2022-12-19T05:39:05.509Z,102205.59
2022-12-19T05:46:39.423Z,102192.22
2022-12-19T05:54:14.986Z,102181.28
2022-12-19T06:01:49.317Z,102172.94
2022-12-19T06:09:25.284Z,102168.28
2022-12-19T06:16:59.235Z,102136.97
2022-12-19T06:24:34.535Z,102132.97
2022-12-19T06:32:08.803Z,102119.53
2022-12-19T06:39:44.272Z,102134.72
2022-12-19T06:47:18.594Z,102117.75
2022-12-19T06:54:53.862Z,102133.09
2022-12-19T07:02:31.478Z,102141.56
2022-12-19T07:10:08.138Z,102151.03
2022-12-19T07:17:43.033Z,102141.91
2022-12-19T07:25:19.004Z,102132.56
2022-12-19T07:32:52.931Z,102126.94
2022-12-19T07:40:28.146Z,102132.97
2022-12-19T07:48:02.621Z,102126.56
2022-12-19T07:55:37.780Z,102115.75
2022-12-19T08:03:11.627Z,102111.31
2022-12-19T08:10:48.480Z,102107.63
2022-12-19T08:18:22.627Z,102086.69
2022-12-19T08:26:06.528Z,102084.88
2022-12-19T08:33:40.600Z,102095.50
2022-12-19T08:41:16.512Z,102095.47
2022-12-19T08:48:50.366Z,102074.63
2022-12-19T08:56:25.611Z,102056.41
2022-12-19T09:05:40.623Z,102039.63
2022-12-19T09:11:55.288Z,102026.63
2022-12-19T09:19:29.219Z,102017.38
2022-12-19T09:27:04.512Z,102020.00
2022-12-19T09:34:39.220Z,102001.31
2022-12-19T09:42:31.718Z,101981.94
2022-12-19T09:50:27.074Z,101969.75
2022-12-19T09:58:08.811Z,101947.75
2022-12-19T10:06:17.788Z,101938.53
2022-12-19T10:14:00.784Z,101942.44
2022-12-19T10:29:51.746Z,101912.50
2022-12-19T10:37:40.709Z,101899.78
2022-12-19T10:45:21.623Z,101876.00
2022-12-19T10:52:58.055Z,101867.38
2022-12-19T11:00:33.532Z,101847.31
2022-12-19T11:08:17.709Z,101842.00
2022-12-19T11:21:07.037Z,101826.25
2022-12-19T11:29:42.225Z,101811.91
2022-12-19T11:39:48.729Z,101814.75
2022-12-19T11:47:34.479Z,101795.91
2022-12-19T11:55:19.237Z,101777.69
2022-12-19T12:03:37.468Z,101772.13
2022-12-19T12:18:22.141Z,101763.41
2022-12-19T12:31:15.312Z,101749.69
2022-12-19T12:32:02.056Z,101749.94
2022-12-19T12:37:51.144Z,101748.03
2022-12-19T12:44:01.120Z,101743.09
2022-12-19T12:51:36.955Z,101748.03
2022-12-19T12:59:23.442Z,101736.78
2022-12-19T13:07:20.177Z,101723.94
2022-12-19T13:14:54.312Z,101705.06
2022-12-19T13:22:43.515Z,101702.84
2022-12-19T13:30:19.888Z,101702.84
2022-12-19T13:39:59.747Z,101701.19
2022-12-19T13:45:59.027Z,101705.78
2022-12-19T13:53:34.738Z,101688.25
2022-12-19T14:01:21.239Z,101684.41
2022-12-19T14:11:23.460Z,101678.63
2022-12-19T14:17:06.540Z,101671.94
2022-12-19T14:24:42.755Z,101667.97
2022-12-19T14:33:40.779Z,101658.25
2022-12-19T14:40:23.698Z,101664.31
2022-12-19T14:54:11.219Z,101662.91
2022-12-19T14:56:24.724Z,101656.50
2022-12-19T15:04:50.296Z,101648.75
2022-12-19T15:14:47.504Z,101641.78
2022-12-19T15:20:15.618Z,101634.47
2022-12-19T15:27:50.936Z,101643.44
2022-12-19T15:35:25.245Z,101639.28
2022-12-19T15:43:00.448Z,101632.50
2022-12-19T15:50:35.568Z,101638.25
2022-12-19T15:58:14.374Z,101626.88
2022-12-19T16:05:49.271Z,101619.34
2022-12-19T16:13:27.086Z,101615.97
2022-12-19T16:21:01.048Z,101621.34
2022-12-19T16:28:36.468Z,101618.25
2022-12-19T16:36:11.919Z,101600.91
2022-12-19T16:43:47.560Z,101601.19
2022-12-19T16:51:24.189Z,101605.72
2022-12-19T16:59:02.991Z,101594.56
2022-12-19T17:06:36.822Z,101585.91
2022-12-19T17:14:17.846Z,101585.63
2022-12-19T17:21:52.255Z,101587.66
2022-12-19T17:29:27.230Z,101580.72
2022-12-19T17:37:01.966Z,101583.97
2022-12-19T17:44:37.186Z,101580.34
2022-12-19T17:52:14.846Z,101570.03
2022-12-19T17:59:50.194Z,101583.94
2022-12-19T18:07:24.244Z,101579.69
2022-12-19T18:14:59.615Z,101587.88
2022-12-19T18:22:33.522Z,101573.13
2022-12-19T18:30:12.257Z,101577.75
2022-12-19T18:37:47.230Z,101576.34
2022-12-19T18:45:24.524Z,101572.50
2022-12-19T18:52:58.798Z,101566.47
2022-12-19T19:00:35.588Z,101561.25
2022-12-19T19:08:16.338Z,101540.75
2022-12-19T19:15:54.066Z,101540.50
2022-12-19T19:23:34.648Z,101541.59
2022-12-19T19:31:14.235Z,101527.78
2022-12-19T19:38:52.140Z,101534.84
2022-12-19T19:46:27.647Z,101530.34
2022-12-19T19:54:01.736Z,101536.38
2022-12-19T20:01:37.157Z,101530.19
2022-12-19T20:09:11.229Z,101525.75
2022-12-19T20:16:46.538Z,101523.69
2022-12-19T20:24:20.494Z,101505.53
2022-12-19T20:31:56.561Z,101510.66
2022-12-19T20:39:30.672Z,101500.47
2022-12-19T20:47:07.162Z,101503.94
2022-12-19T20:54:41.547Z,101515.34
2022-12-19T21:02:16.772Z,101512.19
2022-12-19T21:09:53.914Z,101524.78
2022-12-19T21:17:29.432Z,101508.03
2022-12-19T21:25:03.226Z,101534.41
2022-12-19T21:32:38.429Z,101531.25
2022-12-19T21:40:13.955Z,101504.78
2022-12-19T21:47:49.126Z,101524.84
2022-12-19T21:55:22.984Z,101509.78
2022-12-19T22:03:15.231Z,101515.41
2022-12-19T22:10:49.879Z,101495.31
2022-12-19T22:18:25.032Z,101511.41
2022-12-19T22:26:03.603Z,101518.22
2022-12-19T22:33:38.780Z,101495.56
2022-12-19T22:41:13.367Z,101492.84
2022-12-19T22:48:50.246Z,101493.03
2022-12-19T22:56:26.486Z,101473.00
2022-12-19T23:04:03.391Z,101479.91
2022-12-19T23:11:39.790Z,101465.97
2022-12-19T23:19:16.520Z,101474.47
2022-12-19T23:26:50.321Z,101481.72
2022-12-19T23:34:25.564Z,101471.16
2022-12-19T23:42:01.145Z,101465.88
2022-12-19T23:49:36.513Z,101472.25
2022-12-19T23:57:10.392Z,101451.47
